Time;durP1;ratioP1;P1;durP2;ratioP2;P2;SDS_P1;SDS_P2;PMS_P1;PMS_P2;Temp;Humidity;BMP_temperature;BMP_pressure;BME280_temperature;BME280_humidity;BME280_pressure;Samples;Min_cycle;Max_cycle;Signal;HPM_P1;HPM_P2
2021/12/20 00:01:30;;;;;;;1.47;1.00;;;;;;;;;;1736418;82;21595;-60
2021/12/20 00:03:56;;;;;;;2.02;0.90;;;;;;;;;;1764443;80;20991;-60
2021/12/20 00:06:23;;;;;;;0.80;0.80;;;;;;;;;;1755605;80;21037;-60
2021/12/20 00:08:49;;;;;;;1.77;1.12;;;;;;;;;;1740738;82;21923;-59
2021/12/20 00:11:16;;;;;;;0.80;0.80;;;;;;;;;;1735231;82;20913;-59
2021/12/20 00:13:42;;;;;;;0.90;0.82;;;;;;;;;;1762455;80;20911;-60
2021/12/20 00:16:09;;;;;;;2.62;1.00;;;;;;;;;;1779318;80;20957;-60
2021/12/20 00:18:36;;;;;;;1.10;1.00;;;;;;;;;;1779340;80;20975;-60
2021/12/20 00:21:02;;;;;;;1.12;0.98;;;;;;;;;;1744097;81;21859;-59
2021/12/20 00:23:29;;;;;;;0.82;0.70;;;;;;;;;;1773067;80;21040;-59
2021/12/20 00:25:56;;;;;;;1.98;0.88;;;;;;;;;;1732445;81;20881;-59
2021/12/20 00:28:22;;;;;;;1.72;0.90;;;;;;;;;;1722620;82;20989;-60
2021/12/20 00:30:49;;;;;;;1.55;0.90;;;;;;;;;;1774301;80;20925;-59
2021/12/20 00:33:15;;;;;;;1.50;1.00;;;;;;;;;;1737074;81;21106;-59
2021/12/20 00:35:41;;;;;;;1.00;0.90;;;;;;;;;;1740129;81;21517;-59
2021/12/20 00:40:52;;;;;;;1.25;0.88;;;;;;;;;;1742455;81;21477;-59
2021/12/20 00:43:18;;;;;;;1.70;0.93;;;;;;;;;;1726781;81;21042;-60
2021/12/20 00:45:45;;;;;;;2.08;1.10;;;;;;;;;;1780024;79;21163;-59
2021/12/20 00:48:11;;;;;;;2.30;0.90;;;;;;;;;;1774491;79;20863;-59
2021/12/20 00:50:39;;;;;;;1.17;0.85;;;;;;;;;;1774562;79;20974;-59
2021/12/20 00:53:05;;;;;;;1.80;0.90;;;;;;;;;;1773254;80;20987;-59
2021/12/20 00:55:31;;;;;;;1.47;0.95;;;;;;;;;;1771276;79;20851;-59
2021/12/20 00:57:58;;;;;;;1.07;0.68;;;;;;;;;;1742664;81;21151;-59
2021/12/20 01:00:26;;;;;;;2.25;0.78;;;;;;;;;;1739039;81;21005;-59
2021/12/20 01:02:53;;;;;;;1.35;0.90;;;;;;;;;;1773130;79;21071;-59
2021/12/20 01:05:20;;;;;;;1.75;1.07;;;;;;;;;;1744763;81;20903;-59
2021/12/20 01:07:46;;;;;;;1.42;0.82;;;;;;;;;;1741427;81;20962;-59
2021/12/20 01:10:16;;;;;;;1.45;0.88;;;;;;;;;;1770071;79;20958;-58
2021/12/20 01:12:48;;;;;;;1.17;0.70;;;;;;;;;;1779087;80;21528;-58
2021/12/20 01:15:23;;;;;;;1.12;0.75;;;;;;;;;;1773971;79;21568;-59
2021/12/20 01:17:49;;;;;;;;;;;;;;;;;;1761299;80;21468;-59
2021/12/20 01:20:16;;;;;;;0.72;0.57;;;;;;;;;;1757258;80;20080;-59
2021/12/20 01:22:44;;;;;;;0.68;0.40;;;;;;;;;;1758297;80;21514;-59
2021/12/20 01:25:10;;;;;;;1.30;0.62;;;;;;;;;;1766080;80;21413;-59
2021/12/20 01:27:36;;;;;;;1.17;0.60;;;;;;;;;;1761348;80;20946;-59
2021/12/20 01:30:04;;;;;;;1.12;0.90;;;;;;;;;;1759005;80;21426;-59
2021/12/20 01:32:30;;;;;;;0.82;0.70;;;;;;;;;;1754865;81;21424;-59
2021/12/20 01:34:57;;;;;;;1.45;0.68;;;;;;;;;;1766254;80;21232;-59
2021/12/20 01:37:23;;;;;;;1.32;0.80;;;;;;;;;;1759775;80;20950;-59
2021/12/20 01:39:49;;;;;;;1.00;0.70;;;;;;;;;;1763782;80;21461;-60
2021/12/20 01:42:18;;;;;;;0.88;0.72;;;;;;;;;;1765844;81;20947;-60
2021/12/20 01:44:45;;;;;;;0.82;0.50;;;;;;;;;;1760984;80;21001;-62
2021/12/20 01:47:12;;;;;;;0.93;0.80;;;;;;;;;;1766407;80;21135;-60
2021/12/20 01:49:53;;;;;;;1.32;1.07;;;;;;;;;;1757109;80;21116;-60
2021/12/20 01:52:14;;;;;;;1.70;0.90;;;;;;;;;;1760862;80;21488;-60
2021/12/20 01:54:38;;;;;;;0.95;0.80;;;;;;;;;;1765682;80;21464;-60
2021/12/20 01:57:05;;;;;;;0.78;0.50;;;;;;;;;;1760269;80;20935;-60
2021/12/20 01:59:31;;;;;;;1.95;0.62;;;;;;;;;;1757290;80;21895;-60
2021/12/20 02:01:57;;;;;;;0.65;0.60;;;;;;;;;;1763907;80;20990;-60
2021/12/20 02:04:23;;;;;;;1.22;0.60;;;;;;;;;;1759598;81;20962;-60
2021/12/20 02:06:50;;;;;;;1.25;0.90;;;;;;;;;;1768003;80;20947;-61
2021/12/20 02:09:18;;;;;;;1.20;0.75;;;;;;;;;;1762427;80;21508;-60
2021/12/20 02:11:47;;;;;;;0.78;0.70;;;;;;;;;;1761053;80;21987;-59
2021/12/20 02:14:13;;;;;;;1.02;0.93;;;;;;;;;;1760183;80;21109;-59
2021/12/20 02:16:41;;;;;;;1.82;1.17;;;;;;;;;;1770282;80;20919;-60
2021/12/20 02:19:09;;;;;;;1.70;0.80;;;;;;;;;;1807194;78;20958;-60
2021/12/20 02:21:35;;;;;;;2.45;1.00;;;;;;;;;;1796841;78;20954;-60
2021/12/20 02:24:02;;;;;;;1.42;0.68;;;;;;;;;;1804829;78;21789;-60
2021/12/20 02:26:29;;;;;;;1.00;0.75;;;;;;;;;;1811378;78;20942;-60
2021/12/20 02:28:58;;;;;;;0.93;0.78;;;;;;;;;;1800445;78;21444;-60
2021/12/20 02:37:14;;;;;;;1.10;0.95;;;;;;;;;;1798930;78;21170;-59
2021/12/20 02:39:27;;;;;;;1.70;1.10;;;;;;;;;;1812846;78;20985;-59
2021/12/20 02:41:53;;;;;;;1.70;0.95;;;;;;;;;;1810427;78;20938;-59
2021/12/20 02:44:21;;;;;;;1.50;0.70;;;;;;;;;;1764449;80;21493;-59
2021/12/20 02:47:03;;;;;;;1.42;0.75;;;;;;;;;;1806796;78;21036;-59
2021/12/20 02:49:21;;;;;;;1.98;1.00;;;;;;;;;;1771382;80;21095;-58
2021/12/20 02:51:50;;;;;;;1.02;0.93;;;;;;;;;;1797725;78;20962;-59
2021/12/20 02:54:20;;;;;;;0.90;0.80;;;;;;;;;;1806555;77;21488;-59
2021/12/20 02:56:46;;;;;;;0.57;0.57;;;;;;;;;;1802560;78;21496;-59
2021/12/20 02:59:12;;;;;;;1.00;0.68;;;;;;;;;;1804849;78;21087;-59
2021/12/20 03:01:40;;;;;;;1.42;0.90;;;;;;;;;;1802865;78;21167;-59
2021/12/20 03:04:06;;;;;;;1.98;0.90;;;;;;;;;;1805868;78;20915;-59
2021/12/20 03:06:41;;;;;;;0.85;0.65;;;;;;;;;;1763017;80;21392;-59
2021/12/20 03:09:10;;;;;;;1.65;0.80;;;;;;;;;;1807517;78;21476;-59
2021/12/20 03:11:37;;;;;;;1.67;0.80;;;;;;;;;;1798076;78;21008;-59
2021/12/20 03:14:27;;;;;;;2.10;0.90;;;;;;;;;;1810091;78;21129;-59
2021/12/20 03:16:50;;;;;;;1.95;0.85;;;;;;;;;;1767687;80;21075;-59
2021/12/20 03:19:16;;;;;;;1.80;1.17;;;;;;;;;;1778157;79;21050;-59
2021/12/20 03:21:42;;;;;;;1.72;1.40;;;;;;;;;;1772867;79;20938;-58
2021/12/20 03:24:08;;;;;;;1.67;1.47;;;;;;;;;;1778358;79;21456;-59
2021/12/20 03:26:35;;;;;;;2.67;1.32;;;;;;;;;;1771051;79;21979;-59
2021/12/20 03:29:02;;;;;;;2.00;1.50;;;;;;;;;;1731282;82;20986;-59
2021/12/20 03:31:28;;;;;;;2.27;1.77;;;;;;;;;;1774023;80;20942;-59
2021/12/20 03:33:55;;;;;;;2.02;1.27;;;;;;;;;;1746006;81;21532;-59
2021/12/20 03:36:21;;;;;;;1.52;1.07;;;;;;;;;;1770888;80;20886;-60
2021/12/20 03:38:47;;;;;;;1.77;1.10;;;;;;;;;;1745863;81;21185;-60
2021/12/20 03:41:14;;;;;;;1.50;0.95;;;;;;;;;;1742412;81;21541;-60
2021/12/20 03:43:41;;;;;;;0.95;0.90;;;;;;;;;;1778477;79;21462;-60
2021/12/20 03:46:07;;;;;;;0.60;0.60;;;;;;;;;;1739316;81;20953;-60
2021/12/20 03:48:33;;;;;;;1.40;0.60;;;;;;;;;;1778174;79;20872;-60
2021/12/20 03:51:02;;;;;;;1.02;0.75;;;;;;;;;;1741582;81;21155;-60
2021/12/20 03:53:29;;;;;;;1.27;1.10;;;;;;;;;;1778494;80;20934;-60
2021/12/20 03:55:55;;;;;;;1.47;0.90;;;;;;;;;;1772043;80;20989;-60
2021/12/20 03:58:22;;;;;;;1.62;0.98;;;;;;;;;;1772839;79;20994;-60
2021/12/20 04:00:49;;;;;;;0.88;0.70;;;;;;;;;;1778639;79;20918;-60
2021/12/20 04:03:15;;;;;;;1.00;0.75;;;;;;;;;;1771795;79;22360;-59
2021/12/20 04:05:47;;;;;;;1.27;0.65;;;;;;;;;;1775683;79;20974;-59
2021/12/20 04:08:13;;;;;;;1.92;1.00;;;;;;;;;;1743235;81;21470;-59
2021/12/20 04:10:39;;;;;;;1.35;0.80;;;;;;;;;;1742064;81;20942;-59
2021/12/20 04:13:05;;;;;;;1.20;1.10;;;;;;;;;;1749482;81;21065;-60
2021/12/20 04:15:32;;;;;;;1.20;0.60;;;;;;;;;;1766591;80;21178;-60
2021/12/20 04:18:16;;;;;;;0.93;0.50;;;;;;;;;;1715174;83;21045;-59
2021/12/20 04:20:43;;;;;;;0.57;0.50;;;;;;;;;;1740658;81;21048;-59
2021/12/20 04:23:10;;;;;;;1.20;0.80;;;;;;;;;;1739566;81;21401;-60
2021/12/20 04:25:36;;;;;;;1.45;0.90;;;;;;;;;;1719434;82;21006;-59
2021/12/20 04:28:03;;;;;;;1.30;0.75;;;;;;;;;;1741070;81;21165;-59
2021/12/20 04:30:31;;;;;;;1.27;0.95;;;;;;;;;;1715597;83;21475;-59
2021/12/20 04:32:57;;;;;;;0.55;0.40;;;;;;;;;;1713211;83;20990;-60
2021/12/20 04:35:23;;;;;;;0.93;0.60;;;;;;;;;;1714667;83;20903;-60
2021/12/20 04:38:09;;;;;;;1.32;0.53;;;;;;;;;;1708573;83;21110;-59
2021/12/20 04:40:36;;;;;;;0.85;0.72;;;;;;;;;;1714266;83;21156;-60
2021/12/20 04:43:03;;;;;;;1.98;0.70;;;;;;;;;;1748948;81;20886;-60
2021/12/20 04:45:29;;;;;;;2.25;0.75;;;;;;;;;;1717440;83;20946;-60
2021/12/20 04:47:56;;;;;;;1.77;0.68;;;;;;;;;;1718395;82;21069;-61
2021/12/20 04:50:22;;;;;;;1.45;1.00;;;;;;;;;;1740917;81;20909;-60
2021/12/20 04:52:49;;;;;;;1.80;0.90;;;;;;;;;;1719392;82;21826;-60
2021/12/20 04:55:16;;;;;;;1.52;1.10;;;;;;;;;;1716603;82;20935;-60
2021/12/20 04:57:43;;;;;;;1.47;1.12;;;;;;;;;;1714702;82;20994;-60
2021/12/20 05:00:12;;;;;;;1.57;1.00;;;;;;;;;;1746545;81;21400;-60
2021/12/20 05:02:38;;;;;;;1.42;1.12;;;;;;;;;;1718520;82;21746;-61
2021/12/20 05:05:05;;;;;;;2.15;1.37;;;;;;;;;;1741925;81;21498;-60
2021/12/20 05:07:31;;;;;;;2.62;1.30;;;;;;;;;;1745237;81;20953;-60
2021/12/20 05:10:01;;;;;;;2.75;1.12;;;;;;;;;;1711631;83;20994;-60
2021/12/20 05:12:26;;;;;;;2.85;1.55;;;;;;;;;;1716736;82;21398;-60
2021/12/20 05:14:52;;;;;;;2.33;1.82;;;;;;;;;;1717577;83;21038;-59
2021/12/20 05:17:19;;;;;;;2.15;1.52;;;;;;;;;;1751744;81;20938;-59
2021/12/20 05:19:46;;;;;;;1.77;1.30;;;;;;;;;;1812320;78;20942;-59
2021/12/20 05:22:12;;;;;;;1.95;1.42;;;;;;;;;;1805901;78;21400;-59
2021/12/20 05:24:39;;;;;;;2.70;1.60;;;;;;;;;;1766377;80;20978;-59
2021/12/20 05:27:05;;;;;;;2.05;1.50;;;;;;;;;;1814365;78;20969;-59
2021/12/20 05:29:32;;;;;;;1.90;1.55;;;;;;;;;;1817643;78;21082;-59
2021/12/20 05:31:58;;;;;;;2.85;1.70;;;;;;;;;;1771312;80;21476;-59
2021/12/20 05:34:24;;;;;;;1.77;1.60;;;;;;;;;;1800973;78;21020;-59
2021/12/20 05:36:50;;;;;;;2.02;1.77;;;;;;;;;;1769299;80;20867;-59
2021/12/20 05:39:17;;;;;;;1.98;1.60;;;;;;;;;;1797134;78;20910;-59
2021/12/20 05:41:43;;;;;;;3.80;2.20;;;;;;;;;;1798539;78;21155;-62
2021/12/20 05:44:09;;;;;;;2.27;1.75;;;;;;;;;;1808726;78;21425;-60
2021/12/20 05:46:35;;;;;;;2.62;1.85;;;;;;;;;;1804361;78;21001;-60
2021/12/20 05:49:01;;;;;;;2.58;1.57;;;;;;;;;;1800353;78;21001;-61
2021/12/20 05:51:28;;;;;;;1.98;1.80;;;;;;;;;;1802226;78;20922;-60
2021/12/20 05:53:54;;;;;;;5.37;1.72;;;;;;;;;;1807692;78;21085;-61
2021/12/20 05:56:20;;;;;;;2.20;1.87;;;;;;;;;;1771457;80;20980;-59
2021/12/20 05:58:46;;;;;;;2.75;2.15;;;;;;;;;;1770422;80;20938;-59
2021/12/20 06:01:12;;;;;;;4.17;2.47;;;;;;;;;;1808512;78;20886;-59
2021/12/20 06:03:38;;;;;;;4.03;2.62;;;;;;;;;;1816776;78;20878;-59
2021/12/20 06:06:05;;;;;;;4.37;3.33;;;;;;;;;;1760787;79;21120;-59
2021/12/20 06:08:31;;;;;;;4.37;3.08;;;;;;;;;;1770603;80;21413;-59
2021/12/20 06:10:57;;;;;;;4.72;2.80;;;;;;;;;;1800388;78;20965;-59
2021/12/20 06:13:23;;;;;;;2.80;2.50;;;;;;;;;;1809718;78;20922;-69
2021/12/20 06:15:49;;;;;;;3.83;2.30;;;;;;;;;;1800347;78;20970;-60
2021/12/20 06:18:16;;;;;;;4.85;3.52;;;;;;;;;;1810637;78;21692;-58
2021/12/20 06:20:44;;;;;;;3.77;2.72;;;;;;;;;;1802315;78;21425;-58
2021/12/20 06:23:12;;;;;;;3.85;2.67;;;;;;;;;;1821898;78;20867;-58
2021/12/20 06:25:39;;;;;;;5.80;2.50;;;;;;;;;;1811519;78;21406;-60
2021/12/20 06:28:05;;;;;;;3.47;2.80;;;;;;;;;;1767002;80;20930;-59
2021/12/20 06:30:31;;;;;;;4.25;3.40;;;;;;;;;;1807010;78;21503;-59
2021/12/20 06:32:58;;;;;;;4.78;3.50;;;;;;;;;;1771005;80;20962;-59
2021/12/20 06:35:24;;;;;;;5.55;2.98;;;;;;;;;;1803621;78;20981;-59
2021/12/20 06:38:00;;;;;;;5.55;3.15;;;;;;;;;;1768106;80;21035;-59
2021/12/20 06:40:19;;;;;;;3.90;3.30;;;;;;;;;;1795662;78;20967;-59
2021/12/20 06:42:45;;;;;;;6.28;3.70;;;;;;;;;;1809429;78;21195;-59
2021/12/20 06:45:11;;;;;;;5.42;3.30;;;;;;;;;;1814863;78;21347;-59
2021/12/20 06:47:38;;;;;;;6.67;3.20;;;;;;;;;;1801646;78;20991;-59
2021/12/20 06:50:05;;;;;;;4.87;2.95;;;;;;;;;;1800518;78;21008;-59
2021/12/20 06:52:31;;;;;;;6.70;3.52;;;;;;;;;;1801884;78;21100;-58
2021/12/20 06:54:58;;;;;;;5.17;3.80;;;;;;;;;;1817862;78;21147;-60
2021/12/20 06:57:24;;;;;;;6.22;3.83;;;;;;;;;;1804574;78;21012;-59
2021/12/20 06:59:51;;;;;;;4.35;3.72;;;;;;;;;;1764343;80;20977;-59
2021/12/20 07:02:18;;;;;;;5.05;3.45;;;;;;;;;;1805331;78;20938;-59
2021/12/20 07:04:44;;;;;;;2.62;2.40;;;;;;;;;;1807995;78;21472;-59
2021/12/20 07:07:10;;;;;;;3.05;2.50;;;;;;;;;;1810294;78;21158;-59
2021/12/20 07:09:36;;;;;;;2.62;2.42;;;;;;;;;;1814820;78;20938;-59
2021/12/20 07:12:03;;;;;;;4.28;2.50;;;;;;;;;;1808961;78;21020;-59
2021/12/20 07:14:30;;;;;;;2.75;1.98;;;;;;;;;;1800252;78;20986;-59
2021/12/20 07:16:57;;;;;;;4.83;2.33;;;;;;;;;;1811015;78;20946;-59
2021/12/20 07:19:23;;;;;;;3.17;2.20;;;;;;;;;;1803373;78;21104;-59
2021/12/20 07:21:49;;;;;;;2.47;2.27;;;;;;;;;;1768957;80;21486;-58
2021/12/20 07:24:16;;;;;;;3.00;2.40;;;;;;;;;;1814067;78;20886;-58
2021/12/20 07:26:43;;;;;;;3.25;2.30;;;;;;;;;;1771363;80;20999;-59
2021/12/20 07:29:10;;;;;;;4.40;3.40;;;;;;;;;;1797090;78;20997;-59
2021/12/20 07:31:38;;;;;;;3.47;3.17;;;;;;;;;;1797448;78;22438;-60
2021/12/20 07:34:07;;;;;;;4.20;3.67;;;;;;;;;;1805082;78;21013;-59
2021/12/20 07:36:33;;;;;;;4.35;3.72;;;;;;;;;;1796874;78;21124;-59
2021/12/20 07:39:00;;;;;;;3.75;3.17;;;;;;;;;;1776636;80;20907;-60
2021/12/20 07:41:26;;;;;;;4.10;3.27;;;;;;;;;;1801403;78;20922;-60
2021/12/20 07:43:52;;;;;;;4.35;3.08;;;;;;;;;;1795757;78;21176;-61
2021/12/20 07:46:18;;;;;;;5.58;2.83;;;;;;;;;;1798106;78;20937;-60
2021/12/20 07:48:49;;;;;;;3.22;2.65;;;;;;;;;;1801270;78;20976;-60
2021/12/20 07:51:15;;;;;;;3.10;2.30;;;;;;;;;;1762613;79;21001;-60
2021/12/20 07:53:44;;;;;;;5.37;3.27;;;;;;;;;;1793347;78;20950;-60
2021/12/20 07:56:12;;;;;;;3.12;2.55;;;;;;;;;;1796168;78;21240;-61
2021/12/20 07:58:57;;;;;;;3.52;2.98;;;;;;;;;;1795767;78;21511;-59
2021/12/20 08:01:24;;;;;;;6.33;3.40;;;;;;;;;;1796158;78;21060;-59
2021/12/20 08:04:09;;;;;;;4.55;3.20;;;;;;;;;;1793262;78;20981;-60
2021/12/20 08:06:35;;;;;;;3.80;2.90;;;;;;;;;;1795707;78;21480;-60
2021/12/20 08:09:20;;;;;;;5.05;2.98;;;;;;;;;;1760436;80;21014;-59
2021/12/20 08:11:46;;;;;;;4.67;3.08;;;;;;;;;;1760802;80;20950;-59
2021/12/20 08:14:31;;;;;;;3.92;3.22;;;;;;;;;;1796240;78;21433;-59
2021/12/20 08:16:57;;;;;;;8.00;3.55;;;;;;;;;;1800958;78;20961;-59
2021/12/20 08:19:23;;;;;;;2.62;2.10;;;;;;;;;;1820559;78;20907;-60
2021/12/20 08:21:49;;;;;;;3.58;2.70;;;;;;;;;;1807567;78;21168;-60
2021/12/20 08:24:15;;;;;;;2.50;2.10;;;;;;;;;;1810232;78;21030;-60
2021/12/20 08:26:42;;;;;;;2.35;2.15;;;;;;;;;;1800295;78;20891;-60
2021/12/20 08:29:08;;;;;;;3.37;2.70;;;;;;;;;;1814108;78;20918;-60
2021/12/20 08:31:36;;;;;;;2.65;2.08;;;;;;;;;;1797609;78;21009;-60
2021/12/20 08:34:03;;;;;;;4.05;2.40;;;;;;;;;;1802530;78;23358;-60
2021/12/20 08:36:29;;;;;;;3.80;2.52;;;;;;;;;;1800252;78;21559;-59
2021/12/20 08:38:56;;;;;;;2.55;2.20;;;;;;;;;;1815457;78;20973;-58
2021/12/20 08:41:22;;;;;;;3.92;2.70;;;;;;;;;;1807086;78;20934;-58
2021/12/20 08:44:06;;;;;;;3.17;2.33;;;;;;;;;;1798267;78;21539;-59
2021/12/20 08:46:32;;;;;;;3.12;2.67;;;;;;;;;;1805035;78;21160;-59
2021/12/20 08:48:59;;;;;;;3.12;2.75;;;;;;;;;;1817884;78;20922;-59
2021/12/20 08:51:25;;;;;;;4.08;2.80;;;;;;;;;;1802629;78;20969;-59
2021/12/20 08:53:52;;;;;;;3.12;2.80;;;;;;;;;;1807723;78;21107;-60
2021/12/20 08:56:33;;;;;;;3.80;2.87;;;;;;;;;;1799686;78;20926;-60
2021/12/20 08:59:00;;;;;;;2.87;2.40;;;;;;;;;;1805208;78;21204;-60
2021/12/20 09:01:26;;;;;;;3.77;2.80;;;;;;;;;;1809018;78;20903;-61
2021/12/20 09:03:53;;;;;;;4.20;2.75;;;;;;;;;;1803259;78;20992;-59
2021/12/20 09:06:23;;;;;;;3.83;2.70;;;;;;;;;;1773723;79;20939;-59
2021/12/20 09:09:08;;;;;;;4.28;2.80;;;;;;;;;;1815131;78;20941;-58
2021/12/20 09:11:36;;;;;;;3.85;2.72;;;;;;;;;;1798975;78;21739;-59
2021/12/20 09:14:02;;;;;;;3.60;2.65;;;;;;;;;;1815462;78;20977;-60
2021/12/20 09:16:28;;;;;;;2.40;2.20;;;;;;;;;;1805185;78;21021;-60
2021/12/20 09:18:55;;;;;;;2.60;2.10;;;;;;;;;;1797430;78;20962;-59
2021/12/20 09:21:21;;;;;;;2.55;1.87;;;;;;;;;;1805216;78;21037;-60
2021/12/20 09:23:47;;;;;;;4.17;2.02;;;;;;;;;;1814500;78;21147;-60
2021/12/20 09:26:13;;;;;;;2.10;1.80;;;;;;;;;;1807857;78;20902;-59
2021/12/20 09:28:40;;;;;;;1.85;1.60;;;;;;;;;;1761387;80;21420;-59
2021/12/20 09:31:07;;;;;;;3.90;2.37;;;;;;;;;;1800543;78;21126;-60
2021/12/20 09:33:33;;;;;;;5.08;2.95;;;;;;;;;;1801278;78;20942;-60
2021/12/20 09:36:00;;;;;;;4.90;3.42;;;;;;;;;;1775624;79;21083;-60
2021/12/20 09:38:28;;;;;;;5.22;4.10;;;;;;;;;;1808302;78;21579;-59
2021/12/20 09:43:40;;;;;;;6.67;5.20;;;;;;;;;;1793069;78;20898;-59
2021/12/20 09:46:06;;;;;;;7.15;6.00;;;;;;;;;;1806050;78;21555;-59
2021/12/20 09:48:35;;;;;;;6.10;3.85;;;;;;;;;;1806548;78;21104;-59
2021/12/20 09:51:01;;;;;;;7.12;4.10;;;;;;;;;;1797792;78;20973;-59
2021/12/20 09:53:27;;;;;;;7.12;4.67;;;;;;;;;;1803563;78;21079;-59
2021/12/20 09:55:53;;;;;;;4.10;3.37;;;;;;;;;;1801667;78;21040;-59
2021/12/20 09:58:21;;;;;;;4.47;3.08;;;;;;;;;;1801184;78;21480;-59
2021/12/20 10:00:47;;;;;;;3.75;3.08;;;;;;;;;;1800260;78;21171;-59
2021/12/20 10:03:14;;;;;;;4.05;3.02;;;;;;;;;;1806368;78;21389;-60
2021/12/20 10:05:40;;;;;;;2.95;2.37;;;;;;;;;;1803357;78;21530;-59
2021/12/20 10:08:15;;;;;;;3.33;2.12;;;;;;;;;;1807850;78;21038;-59
2021/12/20 10:10:46;;;;;;;2.22;1.55;;;;;;;;;;1806052;78;21005;-59
2021/12/20 10:13:26;;;;;;;2.37;1.90;;;;;;;;;;1805114;78;22047;-59
2021/12/20 10:15:53;;;;;;;2.47;2.05;;;;;;;;;;1767599;80;20927;-58
2021/12/20 10:18:19;;;;;;;3.17;2.52;;;;;;;;;;1810120;78;20930;-58
2021/12/20 10:20:50;;;;;;;3.55;3.00;;;;;;;;;;1811721;78;21042;-58
2021/12/20 10:23:19;;;;;;;2.85;2.42;;;;;;;;;;1810925;78;21579;-59
2021/12/20 10:25:47;;;;;;;3.77;2.35;;;;;;;;;;1772912;80;21235;-58
2021/12/20 10:28:19;;;;;;;2.77;2.02;;;;;;;;;;1789287;80;20849;-59
2021/12/20 10:30:47;;;;;;;2.30;1.85;;;;;;;;;;1777058;80;20979;-60
2021/12/20 10:33:16;;;;;;;2.30;2.10;;;;;;;;;;1769816;80;20898;-59
2021/12/20 10:35:49;;;;;;;4.50;3.00;;;;;;;;;;1771783;79;21051;-60
2021/12/20 10:38:23;;;;;;;4.78;4.30;;;;;;;;;;1771832;80;21161;-59
2021/12/20 10:40:56;;;;;;;8.55;6.12;;;;;;;;;;1773825;80;20999;-59
2021/12/20 10:43:25;;;;;;;4.40;3.95;;;;;;;;;;1770156;80;20943;-59
2021/12/20 10:45:52;;;;;;;3.42;3.12;;;;;;;;;;1772421;80;21021;-59
2021/12/20 10:48:37;;;;;;;3.50;2.85;;;;;;;;;;1778608;79;20970;-59
2021/12/20 10:51:27;;;;;;;2.37;2.15;;;;;;;;;;1771419;80;20981;-59
2021/12/20 10:54:00;;;;;;;4.33;2.30;;;;;;;;;;1781867;80;21031;-59
2021/12/20 10:56:27;;;;;;;1.60;1.50;;;;;;;;;;1777140;80;20992;-58
2021/12/20 10:58:54;;;;;;;1.75;1.60;;;;;;;;;;1740960;81;21501;-58
2021/12/20 11:04:21;;;;;;;2.58;2.05;;;;;;;;;;1769396;79;21186;-58
2021/12/20 11:09:36;;;;;;;5.22;4.10;;;;;;;;;;1766982;79;21016;-58
2021/12/20 11:12:09;;;;;;;4.50;3.60;;;;;;;;;;1737286;81;21054;-59
2021/12/20 11:14:38;;;;;;;4.97;3.98;;;;;;;;;;1769015;80;20996;-58
2021/12/20 11:17:06;;;;;;;3.22;2.72;;;;;;;;;;1738267;81;21854;-59
2021/12/20 11:19:39;;;;;;;2.87;2.45;;;;;;;;;;1734884;81;21075;-59
2021/12/20 11:22:17;;;;;;;3.08;2.33;;;;;;;;;;1803735;78;20985;-59
2021/12/20 11:24:47;;;;;;;3.08;2.15;;;;;;;;;;1761734;80;21010;-60
2021/12/20 11:27:15;;;;;;;3.50;2.27;;;;;;;;;;1808390;78;20921;-60
2021/12/20 11:29:42;;;;;;;3.17;2.87;;;;;;;;;;1804207;78;21164;-59
2021/12/20 11:32:08;;;;;;;5.42;3.35;;;;;;;;;;1797935;78;21568;-60
2021/12/20 11:34:34;;;;;;;5.22;3.25;;;;;;;;;;1761459;79;21052;-60
2021/12/20 11:37:02;;;;;;;3.15;2.72;;;;;;;;;;1760045;80;20946;-59
2021/12/20 11:39:29;;;;;;;2.52;2.02;;;;;;;;;;1795731;78;20922;-59
2021/12/20 11:41:56;;;;;;;2.20;2.00;;;;;;;;;;1760717;80;21985;-59
2021/12/20 11:44:25;;;;;;;2.98;2.30;;;;;;;;;;1799312;78;20969;-60
2021/12/20 11:47:02;;;;;;;3.27;2.20;;;;;;;;;;1749478;80;21006;-59
2021/12/20 11:49:29;;;;;;;2.15;1.67;;;;;;;;;;1799304;78;21016;-59
2021/12/20 11:51:57;;;;;;;3.30;2.20;;;;;;;;;;1801173;78;21076;-59
2021/12/20 11:54:44;;;;;;;3.65;2.33;;;;;;;;;;1812438;78;21154;-58
2021/12/20 11:57:32;;;;;;;5.22;3.02;;;;;;;;;;1762334;80;20970;-60
2021/12/20 12:00:00;;;;;;;5.65;4.45;;;;;;;;;;1808456;78;20938;-59
2021/12/20 12:02:29;;;;;;;11.90;6.42;;;;;;;;;;1763520;80;21018;-59
2021/12/20 12:05:01;;;;;;;9.60;5.65;;;;;;;;;;1779054;79;21542;-60
2021/12/20 12:07:29;;;;;;;10.45;6.70;;;;;;;;;;1795613;78;21092;-59
2021/12/20 12:10:02;;;;;;;12.45;6.42;;;;;;;;;;1765012;80;21000;-59
2021/12/20 12:12:29;;;;;;;9.30;5.62;;;;;;;;;;1796628;78;32517;-59
2021/12/20 12:15:03;;;;;;;6.95;4.50;;;;;;;;;;1813063;78;21092;-59
2021/12/20 12:17:47;;;;;;;4.75;3.47;;;;;;;;;;1797280;78;20958;-59
2021/12/20 12:20:14;;;;;;;3.10;2.47;;;;;;;;;;1798390;78;21228;-59
2021/12/20 12:22:41;;;;;;;3.52;2.65;;;;;;;;;;1799076;79;20961;-60
2021/12/20 12:25:10;;;;;;;2.67;2.40;;;;;;;;;;1798398;78;21511;-61
2021/12/20 12:27:37;;;;;;;3.92;2.35;;;;;;;;;;1759756;80;21081;-59
2021/12/20 12:30:18;;;;;;;2.02;1.82;;;;;;;;;;1765340;80;21602;-59
2021/12/20 12:32:52;;;;;;;2.42;1.92;;;;;;;;;;1760735;80;21847;-59
2021/12/20 12:35:50;;;;;;;2.42;2.05;;;;;;;;;;1762144;80;20980;-61
2021/12/20 12:38:27;;;;;;;2.90;2.60;;;;;;;;;;1761895;80;20969;-63
2021/12/20 12:41:08;;;;;;;3.45;2.67;;;;;;;;;;1766245;80;21032;-61
2021/12/20 12:43:49;;;;;;;2.27;2.05;;;;;;;;;;1754627;80;20895;-59
2021/12/20 12:46:15;;;;;;;3.37;2.40;;;;;;;;;;1758427;80;21230;-61
2021/12/20 12:48:47;;;;;;;1.92;1.77;;;;;;;;;;1764303;80;20998;-59
2021/12/20 12:51:22;;;;;;;2.10;1.60;;;;;;;;;;1758752;81;20911;-59
2021/12/20 12:53:49;;;;;;;;;;;;;;;;;;1761469;80;21498;-61
2021/12/20 12:56:26;;;;;;;;;;;;;;;;;;1763197;81;20163;-62
2021/12/20 12:59:15;;;;;;;1.77;1.20;;;;;;;;;;1748401;82;21169;-62
2021/12/20 13:01:58;;;;;;;6.47;4.65;;;;;;;;;;1728470;82;20923;-60
2021/12/20 13:04:48;;;;;;;10.40;8.30;;;;;;;;;;1724441;81;21010;-62
2021/12/20 13:07:18;;;;;;;17.75;13.28;;;;;;;;;;1723341;82;20943;-62
2021/12/20 13:09:46;;;;;;;6.78;4.78;;;;;;;;;;1771707;80;21560;-63
2021/12/20 13:12:26;;;;;;;3.20;2.50;;;;;;;;;;1731674;81;21982;-61
2021/12/20 13:14:51;;;;;;;4.53;2.85;;;;;;;;;;1755234;80;20970;-61
2021/12/20 13:17:46;;;;;;;2.45;2.25;;;;;;;;;;1757512;80;21053;-61
2021/12/20 13:23:10;;;;;;;1.22;1.12;;;;;;;;;;1729344;81;20958;-63
2021/12/20 13:25:57;;;;;;;1.30;1.20;;;;;;;;;;1794807;78;21508;-62
2021/12/20 13:28:28;;;;;;;4.17;3.52;;;;;;;;;;1796296;78;21563;-61
2021/12/20 13:31:03;;;;;;;2.08;1.87;;;;;;;;;;1804477;78;20941;-60
2021/12/20 13:33:31;;;;;;;1.40;1.30;;;;;;;;;;1764436;80;20989;-60
2021/12/20 13:36:00;;;;;;;1.15;1.05;;;;;;;;;;1797912;78;20973;-60
2021/12/20 13:38:30;;;;;;;1.30;1.20;;;;;;;;;;1807937;78;21159;-61
2021/12/20 13:41:02;;;;;;;1.40;1.22;;;;;;;;;;1799699;78;20981;-61
2021/12/20 13:43:34;;;;;;;1.62;1.47;;;;;;;;;;1799498;78;21045;-61
2021/12/20 13:46:05;;;;;;;3.10;1.25;;;;;;;;;;1800657;78;20934;-62
2021/12/20 13:48:33;;;;;;;0.88;0.88;;;;;;;;;;1797058;78;20962;-62
2021/12/20 13:50:59;;;;;;;0.85;0.85;;;;;;;;;;1769059;78;21139;-60
2021/12/20 13:53:30;;;;;;;1.10;0.93;;;;;;;;;;1806806;78;21507;-60
2021/12/20 13:55:58;;;;;;;0.82;0.82;;;;;;;;;;1810792;78;20973;-62
2021/12/20 13:58:26;;;;;;;0.98;0.88;;;;;;;;;;1817812;78;21042;-62
2021/12/20 14:00:53;;;;;;;1.95;1.55;;;;;;;;;;1811743;78;20910;-62
2021/12/20 14:03:19;;;;;;;2.83;1.92;;;;;;;;;;1808509;78;21128;-61
2021/12/20 14:05:47;;;;;;;3.10;2.50;;;;;;;;;;1777730;79;20931;-61
2021/12/20 14:08:20;;;;;;;3.00;2.70;;;;;;;;;;1807436;78;20906;-62
2021/12/20 14:10:46;;;;;;;5.58;2.27;;;;;;;;;;1808433;78;21005;-60
2021/12/20 14:13:17;;;;;;;2.45;2.25;;;;;;;;;;1802500;78;21396;-61
2021/12/20 14:15:46;;;;;;;2.90;2.70;;;;;;;;;;1808801;78;21138;-61
2021/12/20 14:18:20;;;;;;;3.20;2.90;;;;;;;;;;1813546;78;21396;-61
2021/12/20 14:20:50;;;;;;;4.40;4.00;;;;;;;;;;1806824;78;20934;-62
2021/12/20 14:23:29;;;;;;;3.62;3.33;;;;;;;;;;1799493;78;20988;-61
2021/12/20 14:26:05;;;;;;;3.62;3.33;;;;;;;;;;1795544;78;21016;-60
2021/12/20 14:28:34;;;;;;;2.50;2.30;;;;;;;;;;1799579;78;21144;-60
2021/12/20 14:31:04;;;;;;;1.75;1.65;;;;;;;;;;1796981;78;20906;-62
2021/12/20 14:33:35;;;;;;;2.37;2.12;;;;;;;;;;1764648;80;21436;-60
2021/12/20 14:36:10;;;;;;;3.35;3.05;;;;;;;;;;1800379;78;21020;-60
2021/12/20 14:38:39;;;;;;;8.63;4.75;;;;;;;;;;1770656;80;20929;-60
2021/12/20 14:41:26;;;;;;;5.72;5.22;;;;;;;;;;1811499;78;21098;-61
2021/12/20 14:43:52;;;;;;;;;;;;;;;;;;1791244;78;21464;-60
2021/12/20 14:46:32;;;;;;;5.60;4.70;;;;;;;;;;1805618;78;20084;-60
2021/12/20 14:49:08;;;;;;;5.78;4.75;;;;;;;;;;1784226;79;21448;-60
2021/12/20 14:51:26;;;;;;;7.53;5.62;;;;;;;;;;1807564;78;20965;-60
2021/12/20 14:54:24;;;;;;;9.48;6.60;;;;;;;;;;1802513;78;21978;-60
2021/12/20 14:56:56;;;;;;;8.25;6.47;;;;;;;;;;1771071;80;20935;-60
2021/12/20 14:59:26;;;;;;;6.62;4.05;;;;;;;;;;1819060;78;21581;-62
2021/12/20 15:01:53;;;;;;;2.45;2.22;;;;;;;;;;1809777;78;21366;-61
2021/12/20 15:04:19;;;;;;;3.37;1.92;;;;;;;;;;1805021;78;21040;-61
2021/12/20 15:06:48;;;;;;;2.30;2.10;;;;;;;;;;1806201;78;21132;-61
2021/12/20 15:09:15;;;;;;;3.22;2.05;;;;;;;;;;1795785;78;20878;-61
2021/12/20 15:11:42;;;;;;;3.00;1.98;;;;;;;;;;1799007;78;20922;-61
2021/12/20 15:14:09;;;;;;;2.70;2.10;;;;;;;;;;1796105;78;20938;-61